createdAt,value
2018-12-18T00:04:21.669Z,10.00
2018-12-18T00:14:36.225Z,8.20
2018-12-18T00:19:39.533Z,9.25
2018-12-18T00:24:42.877Z,8.75
2018-12-18T00:29:46.195Z,9.00
2018-12-18T00:34:49.526Z,9.00
2018-12-18T00:39:52.841Z,9.00
2018-12-18T00:44:56.156Z,9.20
2018-12-18T00:49:59.473Z,9.00
2018-12-18T00:55:02.893Z,8.25
2018-12-18T01:00:06.849Z,8.00
2018-12-18T01:05:10.348Z,8.40
2018-12-18T01:10:13.662Z,9.00
2018-12-18T01:15:16.981Z,8.00
2018-12-18T01:20:20.294Z,7.75
2018-12-18T01:25:23.593Z,7.80
2018-12-18T01:30:26.894Z,8.50
2018-12-18T01:35:30.195Z,6.00
2018-12-18T01:40:33.497Z,7.20
2018-12-18T01:45:36.801Z,7.50
2018-12-18T01:50:40.109Z,7.00
2018-12-18T01:55:43.434Z,6.60
2018-12-18T02:00:46.744Z,6.60
2018-12-18T02:05:50.137Z,7.00
2018-12-18T02:10:53.455Z,7.20
2018-12-18T02:15:57.001Z,5.00
2018-12-18T02:21:00.303Z,7.25
2018-12-18T02:26:03.601Z,5.00
2018-12-18T02:31:06.912Z,5.50
2018-12-18T02:36:10.224Z,7.00
2018-12-18T02:41:13.536Z,5.40
2018-12-18T02:46:16.843Z,5.50
2018-12-18T02:51:20.158Z,5.00
2018-12-18T02:56:23.469Z,6.60
2018-12-18T03:01:26.786Z,6.20
2018-12-18T03:06:30.095Z,6.50
2018-12-18T03:11:33.398Z,5.00
2018-12-18T03:16:36.702Z,5.00
2018-12-18T03:21:40.478Z,5.00
2018-12-18T03:26:43.784Z,6.00
2018-12-18T03:31:51.361Z,5.40
2018-12-18T03:36:54.793Z,4.20
2018-12-18T03:41:58.117Z,4.00
2018-12-18T03:47:01.424Z,4.00
2018-12-18T03:52:04.721Z,5.00
2018-12-18T03:57:08.031Z,4.75
2018-12-18T04:02:11.341Z,4.75
2018-12-18T04:07:14.642Z,5.20
2018-12-18T04:12:22.755Z,4.40
2018-12-18T04:17:26.059Z,3.75
2018-12-18T04:22:29.416Z,4.00
2018-12-18T04:27:32.901Z,4.00
2018-12-18T04:32:36.199Z,4.00
2018-12-18T04:37:39.501Z,4.00
2018-12-18T04:42:42.815Z,5.00
2018-12-18T04:47:46.247Z,4.00
2018-12-18T04:52:49.540Z,4.50
2018-12-18T04:57:52.861Z,4.25
2018-12-18T05:02:56.178Z,3.75
2018-12-18T05:07:59.466Z,4.00
2018-12-18T05:13:02.778Z,4.50
2018-12-18T05:18:06.081Z,4.00
2018-12-18T05:23:09.401Z,5.50
2018-12-18T05:28:12.744Z,4.00
2018-12-18T05:33:16.033Z,4.00
2018-12-18T05:38:19.328Z,4.00
2018-12-18T05:43:22.748Z,3.75
2018-12-18T05:48:26.078Z,3.00
2018-12-18T05:53:29.395Z,4.00
2018-12-18T05:58:32.673Z,3.60
2018-12-18T06:03:35.981Z,4.00
2018-12-18T06:08:39.296Z,3.25
2018-12-18T06:13:42.617Z,4.00
2018-12-18T06:18:45.937Z,2.00
2018-12-18T06:23:49.256Z,2.50
2018-12-18T06:28:52.546Z,3.50
2018-12-18T06:33:55.858Z,3.20
2018-12-18T06:38:59.153Z,3.75
2018-12-18T06:44:02.465Z,3.50
2018-12-18T06:49:05.777Z,2.75
2018-12-18T06:54:09.066Z,3.00
2018-12-18T06:59:12.383Z,3.00
2018-12-18T07:04:15.668Z,3.50
2018-12-18T07:09:18.969Z,3.25
2018-12-18T07:14:22.271Z,3.00
2018-12-18T07:19:25.571Z,3.00
2018-12-18T07:24:29.856Z,3.50
2018-12-18T07:29:33.161Z,2.75
2018-12-18T07:34:36.471Z,2.75
2018-12-18T07:39:39.802Z,3.00
2018-12-18T07:44:43.146Z,3.40
2018-12-18T07:49:46.477Z,11.50
2018-12-18T07:54:49.974Z,9.80
2018-12-18T07:59:53.299Z,10.00
2018-12-18T08:04:56.601Z,8.50
2018-12-18T08:09:59.899Z,6.60
2018-12-18T08:15:03.393Z,6.00
2018-12-18T08:20:06.797Z,5.00
2018-12-18T08:25:10.097Z,4.20
2018-12-18T08:30:13.393Z,3.00
2018-12-18T08:35:16.693Z,3.00
2018-12-18T08:40:19.986Z,2.50
2018-12-18T08:45:23.293Z,3.00
2018-12-18T08:50:26.601Z,2.25
2018-12-18T08:55:29.896Z,2.75
2018-12-18T09:00:33.185Z,2.00
2018-12-18T09:05:42.943Z,2.00
2018-12-18T09:10:41.791Z,2.00
2018-12-18T09:15:50.397Z,2.25
2018-12-18T09:20:53.698Z,2.60
2018-12-18T09:25:56.997Z,2.75
2018-12-18T09:31:00.290Z,2.00
2018-12-18T09:36:03.600Z,2.00
2018-12-18T09:41:12.289Z,1.50
2018-12-18T09:46:15.594Z,2.00
2018-12-18T09:51:18.911Z,2.00
2018-12-18T09:56:22.201Z,2.00
2018-12-18T10:01:25.490Z,2.00
2018-12-18T10:06:28.809Z,2.00
2018-12-18T10:11:32.106Z,2.00
2018-12-18T10:16:35.444Z,1.00
2018-12-18T10:21:38.746Z,1.80
2018-12-18T10:26:42.073Z,1.75
2018-12-18T10:31:45.442Z,2.00
2018-12-18T10:36:48.811Z,1.00
2018-12-18T10:41:52.166Z,1.20
2018-12-18T10:46:55.499Z,1.80
2018-12-18T10:51:58.809Z,2.00
2018-12-18T10:57:02.146Z,1.75
2018-12-18T11:02:05.481Z,1.00
2018-12-18T11:07:08.790Z,1.25
2018-12-18T11:12:12.100Z,1.60
2018-12-18T11:17:15.414Z,1.75
2018-12-18T11:22:18.721Z,1.00
2018-12-18T11:27:22.039Z,1.25
2018-12-18T11:32:25.367Z,1.00
2018-12-18T11:37:28.685Z,1.60
2018-12-18T11:42:32.013Z,2.00
2018-12-18T11:47:35.342Z,2.00
2018-12-18T11:52:38.697Z,1.00
2018-12-18T11:57:42.034Z,1.50
2018-12-18T12:02:45.554Z,7.00
2018-12-18T12:07:48.906Z,6.75
2018-12-18T12:12:52.250Z,6.40
2018-12-18T12:17:55.854Z,6.50
2018-12-18T12:22:59.184Z,9.00
2018-12-18T12:28:05.614Z,5.00
2018-12-18T12:33:08.938Z,5.25
2018-12-18T12:38:12.251Z,3.50
2018-12-18T12:43:15.598Z,4.50
2018-12-18T12:48:19.441Z,3.00
2018-12-18T12:53:22.734Z,2.00
2018-12-18T12:58:26.013Z,2.25
2018-12-18T13:03:29.322Z,2.00
2018-12-18T13:08:32.758Z,2.50
2018-12-18T13:13:36.045Z,2.00
2018-12-18T13:18:39.341Z,1.25
2018-12-18T13:23:42.646Z,2.00
2018-12-18T13:28:45.948Z,2.25
2018-12-18T13:33:49.250Z,1.25
2018-12-18T13:38:52.549Z,1.50
2018-12-18T13:43:55.880Z,2.00
2018-12-18T13:48:59.176Z,1.40
2018-12-18T13:54:02.457Z,1.50
2018-12-18T13:59:05.771Z,2.00
2018-12-18T14:04:09.085Z,2.00
2018-12-18T14:09:12.401Z,1.50
2018-12-18T14:14:15.705Z,1.25
2018-12-18T14:19:19.021Z,2.00
2018-12-18T14:24:22.305Z,1.00
2018-12-18T14:29:25.626Z,1.00
2018-12-18T14:34:28.927Z,2.00
2018-12-18T14:39:32.230Z,1.00
2018-12-18T14:44:35.541Z,2.00
2018-12-18T14:49:38.853Z,1.75
2018-12-18T14:54:42.243Z,1.50
2018-12-18T14:59:45.714Z,1.00
2018-12-18T15:04:49.006Z,1.00
2018-12-18T15:09:52.290Z,1.50
2018-12-18T15:14:55.569Z,1.00
2018-12-18T15:19:58.882Z,1.25
2018-12-18T15:25:02.192Z,1.60
2018-12-18T15:30:07.996Z,1.00
2018-12-18T15:35:11.470Z,1.00
2018-12-18T15:40:14.765Z,1.40
2018-12-18T15:45:18.045Z,1.00
2018-12-18T15:50:21.334Z,1.00
2018-12-18T15:55:24.625Z,1.00
2018-12-18T16:00:27.921Z,1.00
2018-12-18T16:05:31.286Z,0.75
2018-12-18T16:10:34.580Z,0.60
2018-12-18T16:15:37.872Z,1.00
2018-12-18T16:20:41.167Z,1.00
2018-12-18T16:25:44.452Z,1.00
2018-12-18T16:30:47.745Z,1.80
2018-12-18T16:35:51.041Z,1.50
2018-12-18T16:40:54.341Z,1.00
2018-12-18T16:45:57.637Z,1.00
2018-12-18T16:51:01.089Z,0.50
2018-12-18T16:56:04.905Z,1.00
2018-12-18T17:01:08.208Z,1.20
2018-12-18T17:06:11.495Z,0.75
2018-12-18T17:11:14.845Z,1.25
2018-12-18T17:16:18.133Z,1.00
2018-12-18T17:21:21.414Z,0.25
2018-12-18T17:26:24.699Z,1.00
2018-12-18T17:31:27.996Z,1.00
2018-12-18T17:36:31.292Z,1.00
2018-12-18T17:41:34.625Z,1.00
2018-12-18T17:46:37.925Z,1.00
2018-12-18T17:51:41.216Z,1.00
2018-12-18T17:56:44.509Z,1.00
2018-12-18T18:01:47.818Z,0.00
2018-12-18T18:06:51.111Z,1.50
2018-12-18T18:11:54.517Z,0.75
2018-12-18T18:16:57.801Z,1.00
2018-12-18T18:22:01.086Z,0.75
2018-12-18T18:27:04.365Z,1.00
2018-12-18T18:32:07.648Z,0.25
2018-12-18T18:37:10.932Z,1.00
2018-12-18T18:42:14.250Z,1.00
2018-12-18T18:47:17.555Z,0.50
2018-12-18T18:52:20.845Z,0.00
2018-12-18T18:57:24.139Z,0.25
2018-12-18T19:02:27.443Z,0.50
2018-12-18T19:07:30.754Z,1.00
2018-12-18T19:12:34.064Z,0.20
2018-12-18T19:17:37.357Z,0.00
2018-12-18T19:22:40.643Z,0.75
2018-12-18T19:27:43.930Z,1.00
2018-12-18T19:32:47.239Z,0.50
2018-12-18T19:37:50.549Z,0.00
2018-12-18T19:42:53.878Z,0.50
2018-12-18T19:47:57.250Z,0.40
2018-12-18T19:53:00.552Z,0.60
2018-12-18T19:58:03.858Z,1.00
2018-12-18T20:03:07.154Z,0.50
2018-12-18T20:08:10.440Z,1.50
2018-12-18T20:13:13.956Z,2.00
2018-12-18T20:18:17.259Z,1.25
2018-12-18T20:23:20.539Z,2.00
2018-12-18T20:28:23.820Z,2.00
2018-12-18T20:33:27.103Z,2.60
2018-12-18T20:38:30.419Z,3.25
2018-12-18T20:43:33.706Z,3.50
2018-12-18T20:48:36.995Z,4.00
2018-12-18T20:53:40.294Z,6.00
2018-12-18T20:58:43.597Z,4.00
2018-12-18T21:03:46.881Z,2.80
2018-12-18T21:08:50.373Z,2.00
2018-12-18T21:13:53.873Z,2.00
2018-12-18T21:18:57.374Z,2.00
2018-12-18T21:24:00.889Z,3.00
2018-12-18T21:29:04.397Z,2.00
2018-12-18T21:34:07.909Z,2.25
2018-12-18T21:39:11.425Z,2.00
2018-12-18T21:44:14.916Z,1.25
2018-12-18T21:49:19.436Z,2.00
2018-12-18T21:54:22.941Z,2.75
2018-12-18T21:59:26.433Z,2.25
2018-12-18T22:04:29.937Z,2.00
2018-12-18T22:09:33.424Z,2.25
2018-12-18T22:14:36.905Z,2.00
2018-12-18T22:19:40.400Z,2.00
2018-12-18T22:24:43.907Z,3.00
2018-12-18T22:29:47.628Z,2.25
2018-12-18T22:34:50.917Z,3.00
2018-12-18T22:39:54.204Z,3.00
2018-12-18T22:44:57.505Z,1.75
2018-12-18T22:50:00.807Z,2.40
2018-12-18T22:55:04.212Z,1.80
2018-12-18T23:00:12.670Z,2.00
2018-12-18T23:05:16.076Z,2.00
2018-12-18T23:10:19.366Z,2.00
2018-12-18T23:15:22.788Z,2.00
2018-12-18T23:20:26.081Z,2.00
2018-12-18T23:25:29.365Z,1.75
2018-12-18T23:30:32.681Z,2.00
2018-12-18T23:35:35.977Z,2.00
2018-12-18T23:40:39.270Z,1.25
2018-12-18T23:45:42.567Z,2.00
2018-12-18T23:50:45.868Z,3.00
2018-12-18T23:55:49.164Z,3.00
